createdAt,value
2018-08-20T00:02:08.587Z,20.86
2018-08-20T00:04:43.500Z,20.80
2018-08-20T00:07:13.212Z,20.77
2018-08-20T00:09:45.850Z,20.74
2018-08-20T00:12:16.923Z,20.69
2018-08-20T00:14:46.482Z,20.65
2018-08-20T00:17:16.650Z,20.60
2018-08-20T00:19:46.266Z,20.53
2018-08-20T00:22:16.074Z,20.52
2018-08-20T00:24:56.066Z,20.48
2018-08-20T00:27:25.735Z,20.45
2018-08-20T00:29:55.451Z,20.42
2018-08-20T00:32:25.961Z,20.35
2018-08-20T00:34:55.704Z,20.32
2018-08-20T00:37:25.356Z,20.29
2018-08-20T00:39:55.003Z,20.25
2018-08-20T00:42:24.716Z,20.24
2018-08-20T00:44:54.404Z,20.18
2018-08-20T00:47:24.123Z,20.16
2018-08-20T00:49:53.915Z,20.13
2018-08-20T00:52:23.551Z,20.07
2018-08-20T00:54:53.331Z,19.98
2018-08-20T00:57:22.975Z,19.92
2018-08-20T00:59:52.647Z,19.88
2018-08-20T01:02:25.463Z,19.88
2018-08-20T01:04:55.164Z,19.85
2018-08-20T01:07:25.227Z,19.81
2018-08-20T01:09:55.778Z,19.79
2018-08-20T01:12:26.011Z,19.74
2018-08-20T01:14:55.917Z,19.74
2018-08-20T01:17:25.659Z,19.73
2018-08-20T01:19:55.326Z,19.71
2018-08-20T01:22:25.074Z,19.61
2018-08-20T01:24:54.760Z,19.54
2018-08-20T01:27:27.263Z,19.50
2018-08-20T01:29:57.133Z,19.47
2018-08-20T01:32:26.859Z,19.45
2018-08-20T01:35:06.395Z,19.41
2018-08-20T01:37:35.891Z,19.37
2018-08-20T01:40:05.448Z,19.35
2018-08-20T01:42:35.007Z,19.35
2018-08-20T01:45:04.974Z,19.35
2018-08-20T01:47:34.655Z,19.31
2018-08-20T01:50:04.465Z,19.31
2018-08-20T01:52:34.150Z,19.25
2018-08-20T01:55:03.803Z,19.25
2018-08-20T01:57:33.368Z,19.22
2018-08-20T02:00:03.035Z,19.21
2018-08-20T02:02:32.695Z,19.15
2018-08-20T02:05:02.419Z,19.11
2018-08-20T02:07:32.525Z,19.07
2018-08-20T02:10:02.498Z,19.03
2018-08-20T02:12:32.070Z,19.01
2018-08-20T02:15:01.938Z,19.03
2018-08-20T02:17:31.679Z,19.00
2018-08-20T02:20:01.483Z,18.98
2018-08-20T02:22:31.105Z,18.92
2018-08-20T02:25:01.211Z,18.84
2018-08-20T02:27:31.436Z,18.81
2018-08-20T02:30:01.135Z,18.79
2018-08-20T02:32:30.787Z,18.74
2018-08-20T02:35:00.350Z,18.71
2018-08-20T02:37:32.827Z,18.71
2018-08-20T02:40:02.518Z,18.69
2018-08-20T02:42:32.262Z,18.67
2018-08-20T02:45:02.276Z,18.62
2018-08-20T02:47:31.882Z,18.57
2018-08-20T02:50:01.560Z,18.55
2018-08-20T02:52:31.499Z,18.53
2018-08-20T02:55:01.393Z,18.53
2018-08-20T02:57:31.235Z,18.47
2018-08-20T03:00:00.896Z,18.42
2018-08-20T03:02:30.647Z,18.38
2018-08-20T03:05:00.350Z,18.33
2018-08-20T03:07:30.451Z,18.31
2018-08-20T03:10:00.188Z,18.29
2018-08-20T03:12:29.823Z,18.29
2018-08-20T03:14:59.847Z,18.27
2018-08-20T03:17:29.438Z,18.23
2018-08-20T03:19:59.323Z,18.18
2018-08-20T03:22:28.963Z,18.14
2018-08-20T03:24:58.647Z,18.14
2018-08-20T03:27:28.325Z,18.08
2018-08-20T03:29:57.970Z,18.07
2018-08-20T03:32:27.634Z,18.05
2018-08-20T03:34:57.266Z,18.05
2018-08-20T03:37:27.353Z,18.03
2018-08-20T03:39:57.017Z,18.02
2018-08-20T03:42:26.574Z,17.97
2018-08-20T03:44:56.206Z,17.93
2018-08-20T03:47:26.336Z,17.93
2018-08-20T03:49:56.028Z,17.92
2018-08-20T03:52:26.318Z,17.93
2018-08-20T03:54:55.960Z,17.93
2018-08-20T03:57:25.565Z,17.91
2018-08-20T03:59:55.295Z,17.89
2018-08-20T04:02:25.001Z,17.87
2018-08-20T04:04:54.806Z,17.85
2018-08-20T04:07:24.617Z,17.83
2018-08-20T04:09:54.314Z,17.82
2018-08-20T04:12:24.131Z,17.78
2018-08-20T04:14:54.024Z,17.76
2018-08-20T04:17:23.659Z,17.70
2018-08-20T04:19:53.350Z,17.61
2018-08-20T04:22:22.963Z,17.58
2018-08-20T04:24:52.564Z,17.58
2018-08-20T04:27:22.267Z,17.59
2018-08-20T04:29:51.870Z,17.53
2018-08-20T04:32:21.527Z,17.47
2018-08-20T04:34:51.202Z,17.50
2018-08-20T04:37:20.815Z,17.50
2018-08-20T04:39:50.496Z,17.50
2018-08-20T04:42:20.284Z,17.48
2018-08-20T04:44:49.927Z,17.46
2018-08-20T04:47:19.552Z,17.47
2018-08-20T04:49:49.323Z,17.51
2018-08-20T04:52:19.252Z,17.48
2018-08-20T04:54:48.771Z,17.52
2018-08-20T04:57:18.327Z,17.50
2018-08-20T04:59:47.990Z,17.53
2018-08-20T05:02:17.519Z,17.55
2018-08-20T05:04:47.067Z,17.58
2018-08-20T05:07:16.939Z,17.62
2018-08-20T05:09:46.438Z,17.65
2018-08-20T05:12:16.014Z,17.67
2018-08-20T05:14:45.547Z,17.72
2018-08-20T05:17:15.430Z,17.77
2018-08-20T05:19:44.951Z,17.87
2018-08-20T05:22:14.487Z,18.11
2018-08-20T05:24:44.319Z,18.41
2018-08-20T05:27:13.832Z,18.77
2018-08-20T05:29:43.408Z,19.12
2018-08-20T05:32:12.960Z,19.45
2018-08-20T05:34:42.459Z,19.80
2018-08-20T05:37:12.226Z,20.13
2018-08-20T05:39:41.768Z,20.44
2018-08-20T05:42:11.402Z,20.74
2018-08-20T05:44:41.002Z,21.05
2018-08-20T05:47:10.926Z,21.34
2018-08-20T05:49:40.624Z,21.57
2018-08-20T05:52:10.251Z,21.81
2018-08-20T05:54:39.943Z,22.06
2018-08-20T05:57:09.709Z,22.26
2018-08-20T05:59:39.446Z,22.44
2018-08-20T06:02:09.715Z,22.64
2018-08-20T06:04:39.631Z,22.86
2018-08-20T06:07:09.246Z,23.02
2018-08-20T06:09:38.924Z,23.17
2018-08-20T06:12:08.822Z,23.33
2018-08-20T06:14:38.510Z,23.50
2018-08-20T06:17:08.659Z,23.68
2018-08-20T06:19:38.284Z,23.90
2018-08-20T06:22:08.166Z,24.07
2018-08-20T06:24:38.095Z,24.26
2018-08-20T06:27:08.359Z,24.45
2018-08-20T06:29:37.943Z,24.63
2018-08-20T06:32:07.634Z,24.80
2018-08-20T06:34:37.568Z,25.03
2018-08-20T06:37:07.358Z,25.28
2018-08-20T06:39:37.096Z,25.45
2018-08-20T06:42:06.827Z,25.69
2018-08-20T06:44:36.383Z,25.93
2018-08-20T06:47:06.719Z,26.18
2018-08-20T06:49:36.328Z,26.40
2018-08-20T06:52:07.015Z,26.56
2018-08-20T06:54:36.722Z,26.60
2018-08-20T06:57:06.563Z,26.74
2018-08-20T06:59:36.303Z,27.04
2018-08-20T07:02:05.978Z,27.36
2018-08-20T07:04:35.739Z,27.53
2018-08-20T07:07:05.732Z,27.65
2018-08-20T07:09:35.268Z,27.90
2018-08-20T07:12:05.104Z,28.02
2018-08-20T07:14:34.750Z,27.96
2018-08-20T07:17:04.586Z,27.95
2018-08-20T07:19:34.517Z,28.14
2018-08-20T07:22:04.414Z,28.31
2018-08-20T07:24:33.968Z,28.36
2018-08-20T07:27:03.607Z,28.43
2018-08-20T07:29:42.038Z,28.52
2018-08-20T07:32:13.311Z,28.66
2018-08-20T07:34:44.514Z,28.70
2018-08-20T07:37:15.280Z,28.75
2018-08-20T07:39:46.189Z,28.59
2018-08-20T07:42:15.896Z,28.66
2018-08-20T07:44:46.420Z,28.71
2018-08-20T07:47:16.346Z,28.77
2018-08-20T07:49:46.243Z,28.90
2018-08-20T07:52:15.955Z,28.98
2018-08-20T07:54:45.641Z,29.16
2018-08-20T07:57:15.287Z,29.30
2018-08-20T07:59:44.869Z,29.36
2018-08-20T08:02:15.074Z,29.40
2018-08-20T08:04:45.111Z,29.52
2018-08-20T08:07:15.232Z,29.64
2018-08-20T08:09:44.855Z,29.67
2018-08-20T08:12:14.626Z,29.77
2018-08-20T08:14:44.870Z,29.88
2018-08-20T08:17:14.598Z,29.90
2018-08-20T08:19:44.303Z,29.75
2018-08-20T08:22:14.424Z,29.77
2018-08-20T08:24:44.115Z,29.77
2018-08-20T08:27:13.916Z,29.94
2018-08-20T08:29:43.855Z,30.00
2018-08-20T08:32:13.430Z,30.17
2018-08-20T08:34:43.880Z,30.14
2018-08-20T08:37:13.576Z,30.22
2018-08-20T08:39:43.387Z,30.30
2018-08-20T08:42:12.991Z,30.19
2018-08-20T08:44:42.690Z,30.29
2018-08-20T08:47:12.404Z,30.10
2018-08-20T08:49:42.029Z,30.02
2018-08-20T08:52:12.139Z,30.18
2018-08-20T08:54:42.103Z,30.20
2018-08-20T08:57:11.654Z,30.21
2018-08-20T08:59:41.618Z,30.04
2018-08-20T09:02:11.386Z,29.98
2018-08-20T09:04:41.004Z,30.16
2018-08-20T09:07:10.542Z,30.36
2018-08-20T09:09:40.643Z,30.34
2018-08-20T09:12:10.315Z,30.49
2018-08-20T09:14:40.041Z,30.45
2018-08-20T09:17:10.043Z,30.65
2018-08-20T09:19:39.671Z,30.74
2018-08-20T09:22:09.188Z,30.71
2018-08-20T09:24:39.130Z,30.65
2018-08-20T09:27:09.343Z,30.69
2018-08-20T09:29:38.958Z,30.64
2018-08-20T09:32:08.656Z,30.54
2018-08-20T09:34:38.442Z,30.71
2018-08-20T09:37:08.229Z,30.78
2018-08-20T09:39:37.919Z,30.86
2018-08-20T09:42:07.883Z,30.84
2018-08-20T09:44:37.451Z,30.88
2018-08-20T09:47:07.499Z,30.86
2018-08-20T09:49:37.299Z,30.90
2018-08-20T09:52:07.024Z,30.80
2018-08-20T09:54:36.704Z,30.92
2018-08-20T09:57:06.643Z,30.92
2018-08-20T09:59:36.312Z,30.92
2018-08-20T10:02:05.944Z,31.03
2018-08-20T10:04:35.535Z,31.06
2018-08-20T10:07:05.660Z,31.07
2018-08-20T10:09:35.599Z,31.11
2018-08-20T10:12:05.571Z,31.21
2018-08-20T10:14:35.343Z,30.99
2018-08-20T10:17:05.661Z,30.62
2018-08-20T10:19:35.334Z,30.81
2018-08-20T10:22:05.276Z,30.79
2018-08-20T10:24:35.331Z,30.82
2018-08-20T10:27:05.307Z,30.81
2018-08-20T10:29:34.932Z,30.43
2018-08-20T10:32:04.723Z,30.30
2018-08-20T10:34:34.607Z,30.45
2018-08-20T10:37:04.335Z,30.58
2018-08-20T10:39:34.028Z,30.80
2018-08-20T10:42:03.972Z,30.85
2018-08-20T10:44:37.708Z,30.81
2018-08-20T10:47:07.634Z,30.87
2018-08-20T10:49:37.304Z,30.81
2018-08-20T10:52:07.410Z,30.59
2018-08-20T10:54:37.247Z,30.61
2018-08-20T10:57:07.615Z,30.83
2018-08-20T10:59:38.615Z,30.96
2018-08-20T11:02:08.975Z,30.86
2018-08-20T11:04:39.665Z,30.88
2018-08-20T11:07:09.661Z,30.47
2018-08-20T11:09:39.350Z,30.05
2018-08-20T11:12:09.127Z,29.93
2018-08-20T11:14:39.339Z,30.20
2018-08-20T11:17:09.319Z,30.56
2018-08-20T11:19:38.937Z,30.84
2018-08-20T11:22:08.599Z,30.94
2018-08-20T11:24:38.247Z,30.96
2018-08-20T11:27:07.807Z,30.95
2018-08-20T11:29:37.438Z,31.01
2018-08-20T11:32:07.370Z,31.01
2018-08-20T11:34:37.483Z,31.07
2018-08-20T11:37:07.593Z,31.12
2018-08-20T11:39:37.284Z,31.16
2018-08-20T11:42:07.323Z,31.22
2018-08-20T11:44:37.003Z,31.23
2018-08-20T11:47:07.051Z,31.16
2018-08-20T11:49:36.735Z,31.12
2018-08-20T11:52:06.577Z,31.13
2018-08-20T11:54:36.423Z,31.21
2018-08-20T11:57:06.204Z,31.20
2018-08-20T11:59:36.068Z,31.19
2018-08-20T12:02:05.827Z,31.15
2018-08-20T12:04:35.419Z,31.11
2018-08-20T12:07:05.169Z,31.12
2018-08-20T12:09:35.034Z,31.20
2018-08-20T12:12:04.687Z,31.28
2018-08-20T12:14:34.383Z,31.31
2018-08-20T12:17:04.410Z,31.33
2018-08-20T12:19:34.406Z,31.37
2018-08-20T12:22:03.977Z,31.26
2018-08-20T12:24:33.569Z,31.30
2018-08-20T12:27:03.266Z,31.20
2018-08-20T12:29:33.029Z,31.20
2018-08-20T12:32:03.167Z,31.09
2018-08-20T12:34:32.822Z,30.94
2018-08-20T12:37:02.648Z,30.89
2018-08-20T12:39:32.456Z,30.89
2018-08-20T12:42:02.475Z,30.95
2018-08-20T12:44:32.376Z,30.97
2018-08-20T12:47:02.616Z,30.88
2018-08-20T12:49:32.520Z,30.72
2018-08-20T12:52:02.227Z,30.51
2018-08-20T12:54:31.948Z,30.62
2018-08-20T12:57:01.675Z,30.64
2018-08-20T12:59:31.267Z,30.71
2018-08-20T13:02:00.965Z,30.74
2018-08-20T13:04:30.602Z,30.76
2018-08-20T13:07:00.685Z,30.78
2018-08-20T13:09:30.307Z,30.85
2018-08-20T13:11:59.992Z,30.92
2018-08-20T13:14:29.756Z,30.92
2018-08-20T13:16:59.432Z,30.94
2018-08-20T13:19:29.055Z,30.99
2018-08-20T13:21:58.863Z,31.03
2018-08-20T13:24:28.466Z,31.11
2018-08-20T13:26:58.089Z,31.18
2018-08-20T13:29:28.454Z,31.03
2018-08-20T13:31:58.088Z,31.02
2018-08-20T13:34:28.003Z,30.99
2018-08-20T13:36:58.007Z,30.98
2018-08-20T13:39:27.643Z,30.92
2018-08-20T13:41:57.253Z,30.99
2018-08-20T13:44:27.243Z,31.13
2018-08-20T13:46:56.883Z,31.20
2018-08-20T13:49:26.682Z,31.17
2018-08-20T13:51:56.687Z,31.16
2018-08-20T13:54:26.295Z,31.22
2018-08-20T13:56:56.936Z,31.25
2018-08-20T13:59:26.639Z,31.14
2018-08-20T14:01:56.283Z,31.22
2018-08-20T14:04:25.947Z,31.20
2018-08-20T14:06:55.672Z,31.16
2018-08-20T14:09:25.262Z,31.04
2018-08-20T14:11:55.011Z,30.99
2018-08-20T14:14:24.578Z,30.94
2018-08-20T14:16:54.211Z,30.89
2018-08-20T14:19:23.916Z,30.72
2018-08-20T14:21:53.622Z,30.57
2018-08-20T14:24:23.319Z,30.57
2018-08-20T14:26:52.940Z,30.46
2018-08-20T14:29:22.852Z,30.33
2018-08-20T14:31:52.531Z,30.36
2018-08-20T14:34:22.387Z,30.42
2018-08-20T14:36:52.128Z,30.40
2018-08-20T14:39:21.991Z,30.40
2018-08-20T14:41:51.904Z,30.41
2018-08-20T14:44:21.510Z,30.46
2018-08-20T14:46:51.203Z,30.55
2018-08-20T14:49:20.919Z,30.58
2018-08-20T14:51:50.511Z,30.65
2018-08-20T14:54:20.574Z,30.69
2018-08-20T14:56:50.365Z,30.63
2018-08-20T14:59:20.399Z,30.55
2018-08-20T15:01:50.127Z,30.59
2018-08-20T15:04:19.915Z,30.59
2018-08-20T15:07:01.431Z,30.59
2018-08-20T15:09:31.499Z,30.58
2018-08-20T15:12:01.494Z,30.41
2018-08-20T15:14:31.139Z,30.40
2018-08-20T15:17:01.090Z,30.39
2018-08-20T15:19:30.752Z,30.39
2018-08-20T15:22:00.531Z,30.52
2018-08-20T15:24:30.179Z,30.63
2018-08-20T15:27:00.249Z,30.68
2018-08-20T15:29:29.927Z,30.60
2018-08-20T15:31:59.525Z,30.52
2018-08-20T15:34:29.239Z,30.44
2018-08-20T15:36:59.503Z,30.33
2018-08-20T15:39:29.060Z,30.37
2018-08-20T15:41:58.940Z,30.42
2018-08-20T15:44:28.656Z,30.39
2018-08-20T15:46:58.273Z,30.31
2018-08-20T15:49:27.963Z,30.30
2018-08-20T15:51:57.588Z,30.29
2018-08-20T15:54:27.367Z,30.22
2018-08-20T15:56:57.448Z,30.21
2018-08-20T15:59:27.444Z,30.22
2018-08-20T16:01:57.138Z,30.16
2018-08-20T16:04:26.935Z,30.15
2018-08-20T16:06:56.683Z,30.16
2018-08-20T16:09:26.373Z,30.15
2018-08-20T16:11:56.176Z,30.10
2018-08-20T16:14:25.872Z,30.06
2018-08-20T16:16:55.391Z,30.03
2018-08-20T16:19:25.079Z,29.99
2018-08-20T16:21:54.676Z,29.88
2018-08-20T16:24:24.695Z,29.76
2018-08-20T16:26:54.338Z,29.78
2018-08-20T16:29:24.136Z,29.66
2018-08-20T16:31:54.009Z,29.62
2018-08-20T16:34:23.735Z,29.60
2018-08-20T16:36:53.810Z,29.44
2018-08-20T16:39:23.728Z,29.35
2018-08-20T16:41:53.829Z,29.24
2018-08-20T16:44:23.438Z,29.20
2018-08-20T16:46:53.264Z,29.20
2018-08-20T16:49:22.958Z,29.26
2018-08-20T16:51:52.744Z,29.30
2018-08-20T16:54:22.387Z,29.33
2018-08-20T16:56:52.064Z,29.34
2018-08-20T16:59:21.687Z,29.29
2018-08-20T17:01:51.390Z,29.28
2018-08-20T17:04:37.431Z,29.26
2018-08-20T17:07:07.099Z,29.20
2018-08-20T17:09:36.804Z,29.16
2018-08-20T17:12:06.488Z,29.13
2018-08-20T17:14:36.472Z,29.08
2018-08-20T17:17:06.648Z,29.03
2018-08-20T17:19:36.260Z,29.00
2018-08-20T17:22:05.944Z,28.98
2018-08-20T17:24:39.546Z,28.94
2018-08-20T17:27:10.495Z,28.90
2018-08-20T17:29:40.447Z,28.88
2018-08-20T17:32:10.543Z,28.83
2018-08-20T17:34:42.866Z,28.80
2018-08-20T17:37:12.609Z,28.73
2018-08-20T17:39:59.543Z,28.70
2018-08-20T17:42:30.434Z,28.66
2018-08-20T17:45:00.664Z,28.57
2018-08-20T17:47:31.858Z,28.46
2018-08-20T17:50:01.914Z,28.38
2018-08-20T17:52:35.669Z,28.33
2018-08-20T17:55:06.026Z,28.28
2018-08-20T17:57:35.889Z,28.21
2018-08-20T18:00:34.946Z,28.17
2018-08-20T18:03:04.543Z,28.14
2018-08-20T18:05:34.059Z,28.08
2018-08-20T18:08:03.717Z,28.01
2018-08-20T18:10:33.504Z,27.98
2018-08-20T18:13:03.546Z,27.94
2018-08-20T18:15:33.456Z,27.89
2018-08-20T18:18:03.052Z,27.84
2018-08-20T18:20:36.943Z,27.79
2018-08-20T18:23:06.652Z,27.73
2018-08-20T18:25:40.255Z,27.69
2018-08-20T18:28:11.680Z,27.65
2018-08-20T18:30:41.627Z,27.61
2018-08-20T18:33:11.415Z,27.54
2018-08-20T18:35:41.144Z,27.49
2018-08-20T18:38:10.955Z,27.42
2018-08-20T18:40:40.688Z,27.36
2018-08-20T18:43:10.360Z,27.32
2018-08-20T18:45:39.923Z,27.25
2018-08-20T18:48:09.683Z,27.17
2018-08-20T18:50:39.412Z,27.14
2018-08-20T18:53:09.117Z,27.07
2018-08-20T18:55:43.765Z,26.99
2018-08-20T18:58:13.636Z,26.92
2018-08-20T19:00:43.475Z,26.87
2018-08-20T19:03:13.264Z,26.80
2018-08-20T19:05:50.151Z,26.74
2018-08-20T19:08:25.747Z,26.66
2018-08-20T19:10:55.404Z,26.60
2018-08-20T19:13:25.022Z,26.56
2018-08-20T19:15:55.414Z,26.49
2018-08-20T19:18:30.540Z,26.43
2018-08-20T19:21:00.230Z,26.35
2018-08-20T19:23:30.812Z,26.26
2018-08-20T19:26:00.675Z,26.19
2018-08-20T19:28:31.473Z,26.12
2018-08-20T19:31:01.215Z,26.06
2018-08-20T19:33:31.825Z,25.99
2018-08-20T19:36:01.907Z,25.90
2018-08-20T19:38:32.010Z,25.85
2018-08-20T19:41:07.292Z,25.77
2018-08-20T19:43:41.711Z,25.70
2018-08-20T19:46:11.747Z,25.65
2018-08-20T19:48:41.465Z,25.54
2018-08-20T19:51:11.477Z,25.50
2018-08-20T19:53:41.157Z,25.44
2018-08-20T19:56:13.502Z,25.38
2018-08-20T19:58:44.859Z,25.32
2018-08-20T20:01:17.149Z,25.24
2018-08-20T20:03:49.738Z,25.15
2018-08-20T20:06:19.811Z,25.07
2018-08-20T20:08:49.179Z,25.00
2018-08-20T20:11:24.854Z,24.95
2018-08-20T20:13:59.932Z,24.88
2018-08-20T20:16:39.384Z,24.82
2018-08-20T20:19:10.483Z,24.76
2018-08-20T20:21:40.323Z,24.68
2018-08-20T20:24:10.805Z,24.63
2018-08-20T20:26:40.622Z,24.56
2018-08-20T20:29:11.229Z,24.49
2018-08-20T20:31:42.192Z,24.40
2018-08-20T20:34:12.595Z,24.36
2018-08-20T20:36:42.261Z,24.31
2018-08-20T20:39:13.214Z,24.26
2018-08-20T20:41:43.270Z,24.20
2018-08-20T20:44:13.332Z,24.17
2018-08-20T20:46:43.335Z,24.15
2018-08-20T20:49:13.498Z,24.13
2018-08-20T20:51:43.574Z,24.12
2018-08-20T20:54:13.410Z,24.14
2018-08-20T20:56:43.444Z,24.11
2018-08-20T20:59:13.431Z,24.03
2018-08-20T21:01:43.119Z,23.91
2018-08-20T21:04:13.190Z,23.83
2018-08-20T21:06:42.846Z,23.76
2018-08-20T21:09:13.516Z,23.56
2018-08-20T21:11:44.311Z,23.34
2018-08-20T21:14:14.347Z,23.26
2018-08-20T21:16:44.226Z,23.20
2018-08-20T21:19:14.143Z,23.17
2018-08-20T21:21:43.804Z,23.11
2018-08-20T21:24:13.806Z,23.03
2018-08-20T21:26:43.783Z,22.99
2018-08-20T21:29:13.407Z,22.96
2018-08-20T21:31:48.324Z,22.95
2018-08-20T21:34:18.091Z,22.90
2018-08-20T21:36:47.864Z,22.89
2018-08-20T21:39:17.583Z,22.87
2018-08-20T21:41:47.159Z,22.84
2018-08-20T21:44:16.986Z,22.84
2018-08-20T21:46:46.893Z,22.83
2018-08-20T21:49:16.628Z,22.83
2018-08-20T21:51:51.399Z,22.81
2018-08-20T21:54:26.122Z,22.78
2018-08-20T21:56:55.759Z,22.75
2018-08-20T21:59:25.391Z,22.72
2018-08-20T22:01:54.993Z,22.64
2018-08-20T22:04:24.847Z,22.59
2018-08-20T22:06:54.619Z,22.54
2018-08-20T22:09:24.411Z,22.46
2018-08-20T22:11:58.094Z,22.40
2018-08-20T22:14:27.776Z,22.38
2018-08-20T22:16:57.654Z,22.34
2018-08-20T22:19:27.381Z,22.28
2018-08-20T22:21:56.952Z,22.27
2018-08-20T22:24:26.618Z,22.25
2018-08-20T22:27:00.147Z,22.23
2018-08-20T22:29:37.460Z,22.20
2018-08-20T22:32:09.606Z,22.17
2018-08-20T22:34:39.226Z,22.13
2018-08-20T22:37:09.498Z,22.10
2018-08-20T22:39:39.167Z,22.06
2018-08-20T22:42:08.900Z,22.02
2018-08-20T22:44:38.556Z,22.01
2018-08-20T22:47:08.195Z,22.02
2018-08-20T22:49:37.849Z,22.00
2018-08-20T22:52:10.936Z,21.93
2018-08-20T22:54:40.578Z,21.97
2018-08-20T22:57:10.241Z,22.01
2018-08-20T22:59:40.177Z,21.97
2018-08-20T23:02:09.731Z,21.96
2018-08-20T23:04:40.009Z,21.94
2018-08-20T23:07:13.882Z,21.88
2018-08-20T23:09:43.415Z,21.77
2018-08-20T23:12:13.180Z,21.75
2018-08-20T23:14:42.906Z,21.56
2018-08-20T23:17:12.695Z,21.50
2018-08-20T23:19:42.275Z,21.44
2018-08-20T23:22:11.919Z,21.32
2018-08-20T23:24:45.852Z,21.29
2018-08-20T23:27:15.472Z,21.29
2018-08-20T23:29:45.104Z,21.31
2018-08-20T23:32:14.835Z,21.33
2018-08-20T23:34:44.462Z,21.30
2018-08-20T23:37:14.143Z,21.32
2018-08-20T23:39:43.744Z,21.33
2018-08-20T23:42:13.342Z,21.30
2018-08-20T23:44:43.371Z,21.26
2018-08-20T23:47:13.167Z,21.26
2018-08-20T23:49:42.787Z,21.23
2018-08-20T23:52:12.366Z,21.22
2018-08-20T23:54:42.016Z,21.25
2018-08-20T23:57:11.535Z,21.24
2018-08-20T23:59:41.571Z,21.23
